Time;durP1;ratioP1;P1;durP2;ratioP2;P2;SDS_P1;SDS_P2;PMS_P1;PMS_P2;Temp;Humidity;BMP_temperature;BMP_pressure;BME280_temperature;BME280_humidity;BME280_pressure;Samples;Min_cycle;Max_cycle;Signal;HPM_P1;HPM_P2
2023/03/14 00:00:51;;;;;;;23.05;2.90;;;;;;;-146.25;84.40;52412.81;2104086;28;32228;-77
2023/03/14 00:01:53;;;;;;;17.77;2.58;;;;;;;-146.25;84.71;52451.31;2104019;28;34013;-76
2023/03/14 00:02:55;;;;;;;20.02;2.50;;;;;;;-146.25;85.21;52441.19;2104213;28;35279;-78
2023/03/14 00:03:57;;;;;;;20.58;2.67;;;;;;;-146.25;84.86;52429.03;2104394;28;34715;-78
2023/03/14 00:04:58;;;;;;;22.20;2.60;;;;;;;-146.25;84.80;52424.97;2104322;28;39572;-77
2023/03/14 00:06:04;;;;;;;17.02;3.00;;;;;;;-146.25;84.89;52467.56;2104819;28;20878;-78
2023/03/14 00:07:06;;;;;;;18.05;2.60;;;;;;;-146.25;85.02;52445.25;2104130;28;36139;-77
2023/03/14 00:08:08;;;;;;;16.80;2.92;;;;;;;-146.25;84.30;52467.56;2104562;28;31635;-77
2023/03/14 00:09:09;;;;;;;17.13;2.80;;;;;;;-146.25;85.06;52443.22;2104158;28;34077;-77
2023/03/14 00:10:14;;;;;;;19.45;3.22;;;;;;;-146.25;84.63;52457.41;2104234;28;35616;-78
2023/03/14 00:11:20;;;;;;;17.70;2.42;;;;;;;-146.25;85.51;52443.22;2104569;28;20041;-78
2023/03/14 00:12:22;;;;;;;18.98;2.90;;;;;;;-146.25;85.13;52441.19;2104146;28;36127;-78
2023/03/14 00:13:24;;;;;;;27.23;2.97;;;;;;;-146.25;85.12;52408.75;2105003;28;20028;-78
2023/03/14 00:14:26;;;;;;;20.33;2.42;;;;;;;-146.25;85.22;52422.94;2103422;28;35914;-78
2023/03/14 00:15:28;;;;;;;18.80;2.88;;;;;;;-146.25;85.49;52435.09;2104085;28;33282;-78
2023/03/14 00:17:52;;;;;;;16.65;2.70;;;;;;;-146.25;85.41;52465.53;2080630;28;20056;-72
2023/03/14 00:18:53;;;;;;;22.65;2.75;;;;;;;-146.25;85.24;52418.88;2070818;28;39120;-72
2023/03/14 00:19:56;;;;;;;16.92;2.65;;;;;;;-146.25;85.41;52422.94;2070288;28;34913;-72
2023/03/14 00:21:02;;;;;;;20.50;3.40;;;;;;;-146.25;85.90;52441.19;2079334;28;36994;-72
2023/03/14 00:22:06;;;;;;;20.95;2.90;;;;;;;-146.25;85.48;52441.19;2079722;28;20034;-72
2023/03/14 00:23:08;;;;;;;20.05;2.90;;;;;;;-146.25;85.13;52429.03;2062735;28;34321;-72
2023/03/14 00:24:10;;;;;;;18.58;2.65;;;;;;;-146.25;85.46;52453.34;2064230;28;36297;-72
2023/03/14 00:25:12;;;;;;;18.58;2.70;;;;;;;-146.25;85.10;52437.13;2080377;28;33138;-72
2023/03/14 00:26:19;;;;;;;21.63;3.35;;;;;;;-146.25;85.08;52461.47;2079972;28;35843;-72
2023/03/14 00:27:21;;;;;;;21.27;2.67;;;;;;;-146.25;84.97;52408.75;2079661;28;20049;-72
2023/03/14 00:28:22;;;;;;;20.63;2.58;;;;;;;-146.25;84.99;52424.97;2073373;28;20444;-72
2023/03/14 00:29:24;;;;;;;16.95;2.50;;;;;;;-146.25;85.13;52416.84;2080912;28;28275;-73
2023/03/14 00:30:28;;;;;;;17.55;3.00;;;;;;;-146.25;85.14;52451.31;2080180;28;26729;-73
2023/03/14 00:31:31;;;;;;;25.92;2.72;;;;;;;-146.25;85.04;52396.59;2080419;28;20172;-72
2023/03/14 00:32:35;;;;;;;20.27;2.42;;;;;;;-146.25;84.81;52435.09;2080417;28;27464;-72
2023/03/14 00:33:37;;;;;;;16.38;2.40;;;;;;;-146.25;85.47;52418.88;2080057;28;21056;-72
2023/03/14 00:34:39;;;;;;;17.98;2.70;;;;;;;-146.25;85.46;52451.31;2080291;28;30154;-72
2023/03/14 00:35:41;;;;;;;16.27;2.35;;;;;;;-146.25;85.30;52433.06;2079811;28;29850;-72
2023/03/14 00:36:44;;;;;;;19.00;2.60;;;;;;;-146.25;85.08;52420.91;2080731;28;20042;-72
2023/03/14 00:37:50;;;;;;;14.00;2.45;;;;;;;-146.25;85.27;52418.88;2079986;28;20850;-72
2023/03/14 00:38:52;;;;;;;17.40;2.60;;;;;;;-146.25;85.28;52422.94;2072873;28;23166;-71
2023/03/14 00:39:53;;;;;;;18.40;2.60;;;;;;;-146.25;85.22;52449.31;2080949;28;24001;-73
2023/03/14 00:40:55;;;;;;;22.70;3.38;;;;;;;-146.25;85.28;52406.72;2081535;28;20899;-72
2023/03/14 00:41:57;;;;;;;16.70;2.40;;;;;;;-146.25;85.56;52410.78;2080057;28;24959;-73
2023/03/14 00:42:58;;;;;;;18.45;2.25;;;;;;;-146.25;85.41;52388.47;2080310;28;25331;-72
2023/03/14 00:44:02;;;;;;;18.40;3.17;;;;;;;-146.25;85.90;52437.13;2072234;28;20054;-73
2023/03/14 00:45:04;;;;;;;17.90;3.00;;;;;;;-146.25;85.98;52422.94;2080021;28;28296;-72
2023/03/14 00:46:08;;;;;;;14.27;2.42;;;;;;;-146.25;85.46;52402.66;2081185;28;20045;-72
2023/03/14 00:47:10;;;;;;;15.43;2.05;;;;;;;-146.25;85.85;52443.22;2071909;28;20051;-72
2023/03/14 00:48:13;;;;;;;17.42;2.28;;;;;;;-146.25;85.98;52408.75;2066466;28;32332;-72
2023/03/14 00:49:17;;;;;;;11.52;1.73;;;;;;;-146.25;86.00;52433.06;2072166;28;25923;-72
2023/03/14 00:50:18;;;;;;;14.38;2.72;;;;;;;-146.25;86.01;52431.06;2080887;28;25728;-72
2023/03/14 00:51:20;;;;;;;11.52;2.13;;;;;;;-146.25;86.33;52408.75;2080812;28;31893;-72
2023/03/14 00:52:22;;;;;;;16.58;2.10;;;;;;;-146.25;86.72;52422.94;2081101;28;20828;-73
2023/03/14 00:53:24;;;;;;;15.93;2.58;;;;;;;-146.25;86.71;52465.53;2079953;28;27434;-72
2023/03/14 00:54:26;;;;;;;9.77;2.13;;;;;;;-146.25;87.03;52449.31;2063857;28;20043;-72
2023/03/14 00:55:28;;;;;;;12.55;2.45;;;;;;;-146.25;86.96;52441.19;2064804;28;20046;-72
2023/03/14 00:56:30;;;;;;;16.00;2.70;;;;;;;-146.25;87.73;52435.09;2080480;28;30654;-73
2023/03/14 00:57:32;;;;;;;10.65;1.73;;;;;;;-146.25;87.94;52404.69;2072243;28;20105;-73
2023/03/14 00:58:35;;;;;;;10.50;2.22;;;;;;;-146.25;88.59;52453.34;2072338;28;20128;-72
2023/03/14 00:59:36;;;;;;;10.73;1.83;;;;;;;-146.25;88.19;52435.09;2081163;28;20034;-73
2023/03/14 01:00:39;;;;;;;13.73;2.33;;;;;;;-146.25;88.53;52410.78;2072188;28;20168;-72
2023/03/14 01:01:41;;;;;;;10.10;1.95;;;;;;;-146.25;88.16;52429.03;2064123;28;20817;-72
2023/03/14 01:02:43;;;;;;;11.07;2.10;;;;;;;-146.25;88.68;52433.06;2072282;28;25903;-72
2023/03/14 01:03:46;;;;;;;9.82;1.88;;;;;;;-146.25;88.94;52477.69;2071965;28;28699;-72
2023/03/14 01:04:50;;;;;;;9.63;2.42;;;;;;;-146.25;89.23;52431.06;2080037;28;20131;-73
2023/03/14 01:05:51;;;;;;;6.53;1.65;;;;;;;-146.25;89.47;52396.59;2080032;28;28739;-72
2023/03/14 01:06:53;;;;;;;12.43;1.98;;;;;;;-146.25;89.59;52410.78;2080213;28;20053;-73
2023/03/14 01:07:55;;;;;;;9.70;1.77;;;;;;;-146.25;89.66;52414.84;2080195;28;30488;-72
2023/03/14 01:08:57;;;;;;;10.40;2.25;;;;;;;-146.25;89.88;52402.66;2080424;28;27474;-72
2023/03/14 01:10:01;;;;;;;7.53;1.98;;;;;;;-146.25;90.01;52447.28;2080371;28;20143;-72
2023/03/14 01:11:09;;;;;;;10.30;2.20;;;;;;;-146.25;89.88;52398.59;2079618;28;30686;-71
2023/03/14 01:12:10;;;;;;;11.25;2.20;;;;;;;-146.25;90.36;52453.34;2080705;28;20312;-72
2023/03/14 01:13:12;;;;;;;8.15;1.85;;;;;;;-146.25;90.33;52455.38;2071954;28;26729;-72
2023/03/14 01:14:14;;;;;;;13.77;2.30;;;;;;;-146.25;90.44;52420.91;2071643;28;34289;-72
2023/03/14 01:15:18;;;;;;;10.98;2.25;;;;;;;-146.25;90.32;52427.00;2071629;28;26662;-72
2023/03/14 01:16:23;;;;;;;7.22;1.45;;;;;;;-146.25;90.32;52447.28;2080306;28;20906;-73
2023/03/14 01:17:25;;;;;;;8.77;2.22;;;;;;;-146.25;90.54;52402.66;2071190;28;36807;-72
2023/03/14 01:18:27;;;;;;;7.43;1.98;;;;;;;-146.25;90.56;52449.31;2071531;28;27669;-73
2023/03/14 01:19:28;;;;;;;7.80;1.73;;;;;;;-146.25;90.91;52429.03;2063966;28;20726;-73
2023/03/14 01:20:30;;;;;;;7.70;2.22;;;;;;;-146.25;90.90;52455.38;2072054;28;26241;-72
2023/03/14 01:21:35;;;;;;;8.23;1.80;;;;;;;-146.25;90.92;52439.16;2071816;28;20772;-72
2023/03/14 01:22:39;;;;;;;6.43;1.80;;;;;;;-146.25;90.97;52439.16;2063779;28;20946;-72
2023/03/14 01:23:42;;;;;;;6.70;1.88;;;;;;;-146.25;91.30;52424.97;2072262;28;20808;-73
2023/03/14 01:24:44;;;;;;;11.50;2.78;;;;;;;-146.25;91.58;52410.78;2079976;28;20105;-72
2023/03/14 01:25:46;;;;;;;7.70;1.88;;;;;;;-146.25;92.13;52408.75;2080702;28;20051;-72
2023/03/14 01:26:48;;;;;;;8.98;2.13;;;;;;;-146.25;92.31;52451.31;2071854;28;20043;-73
2023/03/14 01:27:49;;;;;;;9.13;2.47;;;;;;;-146.25;92.49;52461.47;2071912;28;20050;-72
2023/03/14 01:28:55;;;;;;;12.60;2.35;;;;;;;-146.25;92.74;52437.13;2071779;28;20043;-72
2023/03/14 01:29:57;;;;;;;11.02;2.17;;;;;;;-146.25;93.07;52441.19;2072298;28;20808;-72
2023/03/14 01:31:05;;;;;;;8.65;2.05;;;;;;;-146.25;93.27;52410.78;2072055;28;20885;-72
2023/03/14 01:32:07;;;;;;;9.13;2.20;;;;;;;-146.25;93.03;52390.50;2072581;28;20035;-72
2023/03/14 01:33:09;;;;;;;7.10;1.88;;;;;;;-146.25;93.08;52398.59;2071754;28;20877;-72
2023/03/14 01:34:11;;;;;;;6.68;2.00;;;;;;;-146.25;93.19;52398.59;2071742;28;20132;-72
2023/03/14 01:35:13;;;;;;;6.03;1.65;;;;;;;-146.25;93.93;52439.16;2071173;28;20054;-72
2023/03/14 01:36:16;;;;;;;7.60;1.88;;;;;;;-146.25;93.99;52414.84;2056812;28;20126;-73
2023/03/14 01:37:18;;;;;;;9.93;2.30;;;;;;;-146.25;94.05;52445.25;2064057;28;20113;-73
2023/03/14 01:38:20;;;;;;;8.27;2.15;;;;;;;-146.25;93.74;52414.84;2071858;28;20860;-72
2023/03/14 01:39:22;;;;;;;9.60;2.58;;;;;;;-146.25;93.54;52412.81;2071901;28;20097;-71
2023/03/14 01:40:24;;;;;;;6.38;2.17;;;;;;;-146.25;94.00;52431.06;2063719;28;20928;-72
2023/03/14 01:41:27;;;;;;;7.75;1.90;;;;;;;-146.25;94.10;52416.84;2063569;28;23350;-72
2023/03/14 01:42:31;;;;;;;10.40;2.28;;;;;;;-146.25;94.07;52422.94;2071793;28;20081;-72
2023/03/14 01:43:33;;;;;;;6.53;2.00;;;;;;;-146.25;94.24;52422.94;2072026;28;23364;-72
2023/03/14 01:44:51;;;;;;;7.30;2.30;;;;;;;-146.25;94.30;52437.13;2080837;28;20816;-72
2023/03/14 01:46:05;;;;;;;7.88;2.40;;;;;;;-146.25;94.33;52439.16;2081304;28;20046;-73
2023/03/14 01:47:10;;;;;;;7.40;2.20;;;;;;;-146.25;94.60;52441.19;2071951;28;20042;-72
2023/03/14 01:48:12;;;;;;;8.80;1.98;;;;;;;-146.25;94.26;52437.13;2072428;28;20062;-72
2023/03/14 01:49:34;;;;;;;9.98;2.28;;;;;;;-146.25;94.23;52463.50;2079752;28;27766;-72
2023/03/14 01:50:41;;;;;;;8.45;2.05;;;;;;;-146.25;94.23;52445.25;2081025;28;20172;-72
2023/03/14 01:52:02;;;;;;;7.78;2.33;;;;;;;-146.25;94.26;52445.25;2080611;28;21202;-72
2023/03/14 01:53:05;;;;;;;5.53;1.80;;;;;;;-146.25;94.09;52382.38;2079707;28;20827;-72
2023/03/14 01:54:42;;;;;;;8.70;2.28;;;;;;;-146.25;94.38;52427.00;2071893;28;20061;-72
2023/03/14 01:55:44;;;;;;;9.20;2.90;;;;;;;-146.25;94.18;52445.25;2071698;28;20046;-72
2023/03/14 01:56:53;;;;;;;6.43;2.58;;;;;;;-146.25;94.23;52414.84;2073976;28;20042;-72
2023/03/14 01:58:02;;;;;;;8.63;2.72;;;;;;;-146.25;94.23;52408.75;2078922;28;20022;-72
2023/03/14 01:59:07;;;;;;;12.23;2.40;;;;;;;-146.25;94.12;52445.25;2077828;28;20034;-72
2023/03/14 02:00:15;;;;;;;9.55;2.38;;;;;;;-146.25;94.36;52447.28;2072014;28;20077;-72
2023/03/14 02:01:22;;;;;;;7.93;2.33;;;;;;;-146.25;94.36;52465.53;2073050;28;20034;-72
2023/03/14 02:02:26;;;;;;;6.75;2.45;;;;;;;-146.25;94.69;52402.66;2080628;28;21608;-72
2023/03/14 02:03:35;;;;;;;10.07;2.50;;;;;;;-146.25;94.69;52429.03;2071799;28;20112;-72
2023/03/14 02:04:38;;;;;;;8.35;2.15;;;;;;;-146.25;94.26;52386.44;2064592;28;20176;-72
2023/03/14 02:05:42;;;;;;;9.30;2.90;;;;;;;-146.25;94.49;52427.00;2073085;28;20070;-73
2023/03/14 02:07:03;;;;;;;9.32;2.85;;;;;;;-146.25;94.33;52412.81;2070593;28;20046;-73
2023/03/14 02:08:17;;;;;;;12.45;2.88;;;;;;;-146.25;94.74;52400.63;2067076;28;20077;-73
2023/03/14 02:09:25;;;;;;;9.98;2.45;;;;;;;-146.25;94.75;52429.03;2057509;28;20812;-73
2023/03/14 02:10:32;;;;;;;6.57;2.15;;;;;;;-146.25;94.58;52412.81;2064645;28;20074;-73
2023/03/14 02:11:36;;;;;;;7.32;2.20;;;;;;;-146.25;94.82;52447.28;2070713;28;20173;-73
2023/03/14 02:12:47;;;;;;;6.30;2.50;;;;;;;-146.25;94.76;52414.84;2067404;28;20074;-72
2023/03/14 02:14:27;;;;;;;7.78;2.10;;;;;;;-146.25;94.93;52429.03;2079500;28;20112;-73
2023/03/14 02:15:55;;;;;;;9.38;2.50;;;;;;;-146.25;94.75;52410.78;2066224;28;20141;-72
2023/03/14 02:17:33;;;;;;;5.97;2.15;;;;;;;-146.25;94.49;52449.31;2050549;28;20047;-72
2023/03/14 02:18:48;;;;;;;5.65;2.00;;;;;;;-146.25;94.82;52420.91;2047651;28;20039;-73
2023/03/14 02:20:38;;;;;;;14.55;2.05;;;;;;;-146.25;94.51;52451.31;2064309;28;20149;-72
2023/03/14 02:22:01;;;;;;;10.35;2.50;;;;;;;-146.25;94.51;52412.81;2079602;28;35709;-73
2023/03/14 02:23:12;;;;;;;6.45;2.38;;;;;;;-146.25;94.28;52412.81;2071708;28;20038;-73
2023/03/14 02:24:32;;;;;;;7.18;1.80;;;;;;;-146.25;94.35;52445.25;2071733;28;20890;-73
2023/03/14 02:26:10;;;;;;;8.00;2.05;;;;;;;-146.25;94.17;52402.66;2066790;28;20050;-73
2023/03/14 02:27:18;;;;;;;14.63;2.35;;;;;;;-146.25;94.33;52433.06;2060395;28;20130;-73
2023/03/14 02:28:21;;;;;;;8.52;2.30;;;;;;;-146.25;94.04;52408.75;2076301;28;20034;-73
2023/03/14 02:29:29;;;;;;;8.75;2.45;;;;;;;-146.25;93.36;52412.81;2071226;28;20043;-73
2023/03/14 02:30:32;;;;;;;13.95;2.15;;;;;;;-146.25;93.41;52451.31;2072103;28;20427;-73
2023/03/14 02:31:35;;;;;;;8.15;2.20;;;;;;;-146.25;93.33;52406.72;2079050;28;20046;-73
2023/03/14 02:32:41;;;;;;;12.88;2.30;;;;;;;-146.25;93.01;52418.88;2071266;28;29217;-73
2023/03/14 02:33:44;;;;;;;8.50;2.00;;;;;;;-146.25;93.03;52433.06;2063368;28;27371;-73
2023/03/14 02:34:50;;;;;;;8.45;1.85;;;;;;;-146.25;92.79;52420.91;2064309;28;22304;-73
2023/03/14 02:36:06;;;;;;;6.90;1.90;;;;;;;-146.25;92.86;52441.19;2079369;28;28664;-73
2023/03/14 02:37:10;;;;;;;9.35;2.25;;;;;;;-146.25;92.93;52445.25;2071701;28;20287;-73
2023/03/14 02:38:33;;;;;;;11.15;2.10;;;;;;;-146.25;92.87;52416.84;2072568;28;20031;-73
2023/03/14 02:39:44;;;;;;;7.25;1.50;;;;;;;-146.25;90.64;52392.53;2071634;28;20832;-72
2023/03/14 02:40:47;;;;;;;5.95;1.35;;;;;;;-146.25;88.39;52433.06;2070486;28;20048;-73
2023/03/14 02:41:49;;;;;;;4.07;0.80;;;;;;;-146.25;87.46;52433.06;2064281;28;20023;-72
2023/03/14 02:42:52;;;;;;;4.63;0.60;;;;;;;-146.25;86.83;52424.97;2070981;28;29273;-73
2023/03/14 02:43:53;;;;;;;5.97;0.60;;;;;;;-146.25;85.38;52420.91;2079917;28;20042;-73
2023/03/14 02:45:15;;;;;;;4.43;0.65;;;;;;;-146.25;85.18;52420.91;2071181;28;20050;-73
2023/03/14 02:46:21;;;;;;;3.15;0.32;;;;;;;-146.25;86.00;52443.22;2074189;28;20103;-72
2023/03/14 02:47:29;;;;;;;4.35;0.47;;;;;;;-146.25;86.54;52455.38;2071192;28;28136;-72
2023/03/14 02:48:48;;;;;;;2.55;0.40;;;;;;;-146.25;85.25;52437.13;2071143;28;31590;-72
2023/03/14 02:49:56;;;;;;;6.03;0.30;;;;;;;-146.25;85.91;52447.28;2071686;28;20073;-72
2023/03/14 02:51:01;;;;;;;4.43;0.50;;;;;;;-146.25;86.08;52449.31;2073886;28;20046;-72
2023/03/14 02:52:04;;;;;;;4.80;0.40;;;;;;;-146.25;86.00;52433.06;2071403;28;20161;-72
2023/03/14 02:53:06;;;;;;;3.97;0.50;;;;;;;-146.25;86.03;52384.41;2079241;28;20915;-72
2023/03/14 02:54:08;;;;;;;3.75;0.38;;;;;;;-146.25;84.65;52437.13;2078956;28;20152;-72
2023/03/14 02:55:10;;;;;;;5.32;0.45;;;;;;;-146.25;84.38;52424.97;2073104;28;20974;-72
2023/03/14 02:56:15;;;;;;;4.68;0.40;;;;;;;-146.25;84.47;52451.31;2071558;28;20081;-72
2023/03/14 02:57:16;;;;;;;2.67;0.30;;;;;;;-146.25;84.34;52416.84;2071216;28;20042;-72
2023/03/14 02:58:20;;;;;;;3.33;0.32;;;;;;;-146.25;84.32;52388.47;2071575;28;20102;-72
2023/03/14 02:59:25;;;;;;;5.25;0.45;;;;;;;-146.25;84.83;52447.28;2071130;28;20045;-72
2023/03/14 03:00:33;;;;;;;2.85;0.30;;;;;;;-146.25;84.32;52451.31;2075951;28;20041;-72
2023/03/14 03:01:36;;;;;;;2.85;0.32;;;;;;;-146.25;84.64;52429.03;2079096;28;20041;-72
2023/03/14 03:02:38;;;;;;;5.15;0.38;;;;;;;-146.25;84.84;52424.97;2079419;28;28802;-72
2023/03/14 03:03:40;;;;;;;4.72;0.47;;;;;;;-146.25;85.12;52449.31;2079538;28;33000;-72
2023/03/14 03:04:42;;;;;;;7.03;0.65;;;;;;;-146.25;86.25;52429.03;2079258;28;26898;-72
2023/03/14 03:05:48;;;;;;;6.07;0.50;;;;;;;-146.25;88.23;52443.22;2087821;28;20167;-74
2023/03/14 03:06:50;;;;;;;3.65;0.45;;;;;;;-146.25;89.71;52427.00;2079495;28;20124;-73
2023/03/14 03:07:52;;;;;;;4.68;0.40;;;;;;;-146.25;90.77;52410.78;2079955;28;20795;-73
2023/03/14 03:08:54;;;;;;;6.93;0.40;;;;;;;-146.25;90.92;52424.97;2066859;28;20042;-73
2023/03/14 03:09:56;;;;;;;2.42;0.30;;;;;;;-146.25;92.26;52435.09;2063323;28;20134;-73
2023/03/14 03:10:58;;;;;;;5.22;0.63;;;;;;;-146.25;92.98;52437.13;2063125;28;20058;-74
2023/03/14 03:12:01;;;;;;;3.40;0.50;;;;;;;-146.25;93.92;52429.03;2063301;28;20062;-73
2023/03/14 03:13:04;;;;;;;4.07;0.70;;;;;;;-146.25;95.22;52416.84;2070964;28;20109;-74
2023/03/14 03:14:05;;;;;;;3.55;0.32;;;;;;;-146.25;96.11;52433.06;2071026;28;20054;-73
2023/03/14 03:15:08;;;;;;;5.78;0.60;;;;;;;-146.25;96.97;52441.19;2071315;28;20116;-73
2023/03/14 03:16:13;;;;;;;6.47;0.40;;;;;;;-146.25;97.94;52461.47;2078985;28;20038;-74
2023/03/14 03:17:15;;;;;;;3.70;0.50;;;;;;;-146.25;98.25;52392.53;2071002;28;20121;-74
2023/03/14 03:18:18;;;;;;;4.22;0.55;;;;;;;-146.25;99.18;52437.13;2071185;28;20069;-74
2023/03/14 03:19:20;;;;;;;5.32;0.35;;;;;;;-146.25;99.09;52416.84;2079525;28;20050;-74
2023/03/14 03:20:22;;;;;;;6.20;0.52;;;;;;;-146.25;99.29;52437.13;2079418;28;20123;-74
2023/03/14 03:21:24;;;;;;;4.95;0.50;;;;;;;-146.25;100.00;52441.19;2078880;28;38346;-74
2023/03/14 03:22:28;;;;;;;6.10;0.60;;;;;;;-146.25;99.54;52441.19;2080204;28;20031;-74
2023/03/14 03:23:30;;;;;;;4.97;0.40;;;;;;;-146.25;100.00;52416.84;2070741;28;31822;-73
2023/03/14 03:24:32;;;;;;;2.88;0.30;;;;;;;-146.25;99.44;52433.06;2070839;28;20943;-73
2023/03/14 03:25:36;;;;;;;5.47;0.30;;;;;;;-146.25;99.92;52416.84;2071876;28;20053;-73
2023/03/14 03:26:38;;;;;;;3.67;0.60;;;;;;;-146.25;99.88;52431.06;2071040;28;20895;-73
2023/03/14 03:27:42;;;;;;;4.15;0.50;;;;;;;-146.25;100.00;52424.97;2079320;28;20038;-73
2023/03/14 03:28:44;;;;;;;4.20;0.40;;;;;;;-146.25;100.00;52477.69;2079497;28;20077;-74
2023/03/14 03:29:47;;;;;;;4.63;0.40;;;;;;;-146.25;100.00;52435.09;2079511;28;20042;-73
2023/03/14 03:30:49;;;;;;;2.60;0.43;;;;;;;-146.25;100.00;52422.94;2079417;28;20896;-73
2023/03/14 03:31:54;;;;;;;4.97;0.68;;;;;;;-146.25;100.00;52420.91;2071551;28;20947;-73
2023/03/14 03:32:56;;;;;;;3.63;0.50;;;;;;;-146.25;100.00;52429.03;2080275;28;20030;-73
2023/03/14 03:34:02;;;;;;;5.93;0.77;;;;;;;-146.25;100.00;52439.16;2070999;28;20828;-73
2023/03/14 03:35:05;;;;;;;4.90;0.55;;;;;;;-146.25;100.00;52445.25;2071191;28;20109;-73
2023/03/14 03:36:13;;;;;;;4.35;0.70;;;;;;;-146.25;100.00;52437.13;2070918;28;20160;-73
2023/03/14 03:37:15;;;;;;;5.55;0.63;;;;;;;-146.25;100.00;52410.78;2071318;28;20521;-73
2023/03/14 03:38:19;;;;;;;2.80;0.40;;;;;;;-146.25;100.00;52412.81;2070889;28;20189;-72
2023/03/14 03:39:23;;;;;;;5.15;0.50;;;;;;;-146.25;100.00;52420.91;2071273;28;20053;-73
2023/03/14 03:40:25;;;;;;;3.75;0.60;;;;;;;-146.25;100.00;52418.88;2071085;28;20645;-75
2023/03/14 03:41:27;;;;;;;4.57;0.60;;;;;;;-146.25;100.00;52429.03;2062329;28;20054;-76
2023/03/14 03:42:29;;;;;;;5.10;0.75;;;;;;;-146.25;100.00;52465.53;2071074;28;20034;-76
2023/03/14 03:43:32;;;;;;;3.92;0.43;;;;;;;-146.25;100.00;52404.69;2071456;28;20049;-76
2023/03/14 03:44:37;;;;;;;5.93;0.50;;;;;;;-146.25;100.00;52416.84;2070968;28;20035;-75
2023/03/14 03:45:39;;;;;;;5.43;0.57;;;;;;;-146.25;100.00;52455.38;2071645;28;20038;-75
2023/03/14 03:46:41;;;;;;;5.32;0.50;;;;;;;-146.25;100.00;52433.06;2070987;28;20124;-73
2023/03/14 03:47:43;;;;;;;3.40;0.50;;;;;;;-146.25;100.00;52424.97;2071014;28;25104;-73
2023/03/14 03:48:46;;;;;;;4.78;0.43;;;;;;;-146.25;100.00;52408.75;2071343;28;20097;-76
2023/03/14 03:49:50;;;;;;;6.20;0.60;;;;;;;-146.25;100.00;52481.75;2070818;28;20054;-75
2023/03/14 03:50:51;;;;;;;4.38;0.50;;;;;;;-146.25;100.00;52420.91;2071153;28;20047;-76
2023/03/14 03:51:56;;;;;;;5.47;0.60;;;;;;;-146.25;100.00;52441.19;2079400;28;20038;-76
2023/03/14 03:52:58;;;;;;;2.75;0.63;;;;;;;-146.25;100.00;52431.06;2071143;28;20162;-75
2023/03/14 03:54:00;;;;;;;5.40;0.90;;;;;;;-146.25;100.00;52461.47;2071277;28;20883;-75
2023/03/14 03:55:08;;;;;;;4.70;0.80;;;;;;;-146.25;100.00;52418.88;2071068;28;20058;-75
2023/03/14 03:56:10;;;;;;;4.30;1.00;;;;;;;-146.25;100.00;52443.22;2071549;28;27194;-75
2023/03/14 03:57:13;;;;;;;3.63;0.90;;;;;;;-146.25;100.00;52422.94;2070831;28;20246;-75
2023/03/14 03:58:15;;;;;;;4.07;0.90;;;;;;;-146.25;100.00;52416.84;2072427;28;20043;-75
2023/03/14 03:59:17;;;;;;;6.80;1.20;;;;;;;-146.25;100.00;52431.06;2080693;28;29153;-75
2023/03/14 04:00:22;;;;;;;6.72;1.30;;;;;;;-146.25;100.00;52453.34;2080723;28;20038;-75
2023/03/14 04:01:26;;;;;;;6.68;1.63;;;;;;;-146.25;100.00;52402.66;2080628;28;20745;-75
2023/03/14 04:02:31;;;;;;;5.35;1.50;;;;;;;-146.25;100.00;52451.31;2080530;28;20049;-75
2023/03/14 04:03:33;;;;;;;4.40;1.45;;;;;;;-146.25;100.00;52412.81;2072622;28;20061;-75
2023/03/14 04:04:37;;;;;;;8.18;2.00;;;;;;;-146.25;100.00;52437.13;2065147;28;20046;-75
2023/03/14 04:05:39;;;;;;;9.00;2.05;;;;;;;-146.25;100.00;52457.41;2072561;28;20121;-75
2023/03/14 04:06:43;;;;;;;5.20;2.35;;;;;;;-146.25;100.00;52433.06;2064693;28;20039;-75
2023/03/14 04:07:45;;;;;;;8.60;2.28;;;;;;;-146.25;100.00;52433.06;2072539;28;20133;-75
2023/03/14 04:08:51;;;;;;;9.55;2.47;;;;;;;-146.25;100.00;52453.34;2072373;28;20053;-75
2023/03/14 04:10:18;;;;;;;9.35;1.83;;;;;;;-146.25;100.00;52429.03;2073556;28;20143;-75
2023/03/14 04:11:34;;;;;;;9.38;2.30;;;;;;;-146.25;100.00;52420.91;2072836;28;20927;-75
2023/03/14 04:12:57;;;;;;;6.57;2.03;;;;;;;-146.25;100.00;52424.97;2072117;28;20043;-74
2023/03/14 04:14:02;;;;;;;7.43;2.38;;;;;;;-146.25;100.00;52400.63;2073226;28;20035;-75
2023/03/14 04:15:05;;;;;;;7.57;2.20;;;;;;;-146.25;100.00;52402.66;2073012;28;20042;-75
2023/03/14 04:16:20;;;;;;;6.30;2.33;;;;;;;-146.25;100.00;52447.28;2064423;28;20042;-75
2023/03/14 04:17:23;;;;;;;6.18;1.85;;;;;;;-146.25;100.00;52400.63;2066536;28;20134;-75
2023/03/14 04:18:27;;;;;;;8.30;2.13;;;;;;;-146.25;100.00;52433.06;2072505;28;20044;-75
2023/03/14 04:19:28;;;;;;;7.45;2.33;;;;;;;-146.25;100.00;52392.53;2072447;28;20042;-74
2023/03/14 04:20:34;;;;;;;7.30;1.90;;;;;;;-146.25;100.00;52422.94;2072651;28;20030;-75
2023/03/14 04:21:44;;;;;;;7.15;2.28;;;;;;;-146.25;100.00;52437.13;2072134;28;20209;-75
2023/03/14 04:22:46;;;;;;;6.93;1.90;;;;;;;-146.25;100.00;52461.47;2073580;28;20161;-75
2023/03/14 04:23:48;;;;;;;6.80;2.05;;;;;;;-146.25;100.00;52453.34;2080224;28;21933;-75
2023/03/14 04:24:50;;;;;;;6.00;2.00;;;;;;;-146.25;100.00;52396.59;2080571;28;20038;-74
2023/03/14 04:25:54;;;;;;;9.45;2.03;;;;;;;-146.25;100.00;52467.56;2080417;28;20058;-75
2023/03/14 04:26:57;;;;;;;6.00;1.92;;;;;;;-146.25;100.00;52437.13;2072442;28;20053;-75
2023/03/14 04:28:00;;;;;;;4.82;1.45;;;;;;;-146.25;100.00;52447.28;2072378;28;20128;-75
2023/03/14 04:29:03;;;;;;;7.68;2.00;;;;;;;-146.25;100.00;52412.81;2064588;28;20122;-75
2023/03/14 04:30:06;;;;;;;8.65;1.95;;;;;;;-146.25;100.00;52441.19;2064118;28;20117;-75
2023/03/14 04:31:29;;;;;;;7.03;1.70;;;;;;;-146.25;100.00;52435.09;2072223;28;20043;-74
2023/03/14 04:32:32;;;;;;;5.10;1.80;;;;;;;-146.25;100.00;52437.13;2072425;28;20073;-75
2023/03/14 04:33:34;;;;;;;6.00;1.65;;;;;;;-146.25;100.00;52416.84;2072543;28;20042;-75
2023/03/14 04:34:49;;;;;;;5.57;1.60;;;;;;;-146.25;100.00;52416.84;2066456;28;20051;-75
2023/03/14 04:35:54;;;;;;;6.70;1.50;;;;;;;-146.25;100.00;52455.38;2065828;28;32708;-75
2023/03/14 04:36:56;;;;;;;6.78;1.30;;;;;;;-146.25;100.00;52412.81;2072995;28;20035;-75
2023/03/14 04:38:04;;;;;;;6.15;1.58;;;;;;;-146.25;100.00;52422.94;2080414;28;20172;-75
2023/03/14 04:39:10;;;;;;;5.60;1.35;;;;;;;-146.25;100.00;52451.31;2079953;28;20048;-75
2023/03/14 04:40:16;;;;;;;4.28;1.23;;;;;;;-146.25;100.00;52451.31;2072958;28;20054;-75
2023/03/14 04:41:19;;;;;;;3.95;1.00;;;;;;;-146.25;100.00;52416.84;2080431;28;20818;-75
2023/03/14 04:42:21;;;;;;;5.63;1.05;;;;;;;-146.25;100.00;52469.56;2080053;28;20049;-75
2023/03/14 04:43:23;;;;;;;4.82;0.90;;;;;;;-146.25;100.00;52453.34;2080495;28;20180;-75
2023/03/14 04:44:29;;;;;;;4.68;1.10;;;;;;;-146.25;100.00;52475.66;2079776;28;20116;-75
2023/03/14 04:45:31;;;;;;;3.00;0.70;;;;;;;-146.25;100.00;52461.47;2071738;28;20077;-73
2023/03/14 04:46:34;;;;;;;5.55;1.08;;;;;;;-146.25;100.00;52461.47;2080494;28;20884;-73
2023/03/14 04:47:39;;;;;;;4.40;0.82;;;;;;;-146.25;100.00;52429.03;2080301;28;20990;-74
2023/03/14 04:48:42;;;;;;;4.50;1.00;;;;;;;-146.25;100.00;52433.06;2072228;28;20181;-74
2023/03/14 04:49:43;;;;;;;3.75;0.60;;;;;;;-146.25;100.00;52479.72;2072353;28;20050;-74
2023/03/14 04:50:50;;;;;;;5.40;0.93;;;;;;;-146.25;100.00;52445.25;2072398;28;20843;-74
2023/03/14 04:51:52;;;;;;;3.63;0.80;;;;;;;-146.25;100.00;52445.25;2079319;28;20086;-74
2023/03/14 04:52:55;;;;;;;5.82;0.73;;;;;;;-146.25;100.00;52437.13;2080457;28;20038;-74
2023/03/14 04:53:57;;;;;;;5.57;0.98;;;;;;;-146.25;100.00;52437.13;2080431;28;20045;-73
2023/03/14 04:54:59;;;;;;;4.60;0.93;;;;;;;-146.25;100.00;52435.09;2080553;28;20946;-74
2023/03/14 04:56:01;;;;;;;3.50;0.60;;;;;;;-146.25;100.00;52435.09;2080119;28;20050;-73
2023/03/14 04:57:12;;;;;;;4.82;0.63;;;;;;;-146.25;100.00;52451.31;2080281;28;20049;-74
2023/03/14 04:58:14;;;;;;;3.33;0.70;;;;;;;-146.25;100.00;52424.97;2072540;28;20116;-74
2023/03/14 04:59:19;;;;;;;4.45;0.63;;;;;;;-146.25;100.00;52443.22;2072535;28;20448;-74